Overview Statistics Trail Chart Weather Telemetry Raw packets
 

This is the latest recevied weather packets stored in our database for station/object KQ4KX. If no packets are shown the sender has not sent any weather packets the latest 10 day(s).

<< 48 49 50 51 52 53 54 >>
Time Temp. Humidity Pressure Rain* Wind** Luminosity Snow
1788280353 29.44° C 88% 1017.7 hPa 0 mm - - -
1788279393 29.44° C 87% 1017.6 hPa 0 mm - - -
1788278493 30.56° C 79% 1017.6 hPa 0 mm - - -
1788277263 31.67° C 79% 1017.6 hPa 0 mm - - -
1788276963 31.11° C 80% 1017.6 hPa 0 mm - - -
1788276783 31.11° C 79% 1017.7 hPa 0 mm - - -
1788276633 31.11° C 79% 1017.7 hPa 0 mm - - -
1788276303 31.11° C 81% 1017.8 hPa 0 mm - - -
1788276003 31.11° C 81% 1017.8 hPa 0 mm - - -
1788275868 30.56° C 80% 1017.7 hPa 0 mm - - -
1788275673 30.56° C 80% 1017.7 hPa 0 mm - - -
1788275499 30.56° C 82% 1017.7 hPa 0 mm - - -
1788275343 30.56° C 82% 1017.7 hPa 0 mm - - -
1788275043 30.56° C 85% 1017.6 hPa 0 mm - - -
1788274743 30.56° C 84% 1017.7 hPa 0 mm - - -
1788274674 30° C 86% 1017.7 hPa 0 mm - - -
1788274443 30° C 86% 1017.7 hPa 0 mm - - -
1788274299 30° C 87% 1017.7 hPa 0 mm - - -
1788274113 30° C 87% 1017.7 hPa 0 mm - - -
1788273813 29.44° C 88% 1017.7 hPa 0 mm - - -
1788273483 28.89° C 89% 1017.7 hPa 0 mm - - -
1788272853 28.33° C 94% 1017.5 hPa 0 mm - - -
1788272523 27.78° C 95% 1017.5 hPa 0 mm - - -
1788271893 27.22° C 95% 1017.6 hPa 0 mm - - -
1788271562 27.22° C 95% 1017.5 hPa 0 mm - - -

* Rain latest hour (hover to see other rain measurements)
** Current wind speed in m/s (hover to see current wind gust speed)